Impacts METAR Board INFO
IDs:

KASD - Slidell Arpt, LA, US

Updated at: 2206 UTC 19 Feb 2018
Potential Impact None Slight Moderate High
Time19/10Z 19/11Z 19/12Z 19/13Z 19/14Z 19/15Z 19/16Z 19/17Z 19/18Z 19/19Z 19/20Z 19/21Z 19/22Z
VIS4 4 10 1.5 10 10 10 10 10 10 10 10 10
CIG8 7 8 6 6 7 -- 65 65 70 75 -- --
CoverOVCOVCOVCOVCOVCBKNFEWBKNBKNOVCBKNSCTSCT
FltCatIFRIFRIFRIFRIFRIFRVFRVFRVFRVFRVFRVFRVFR
WXBRBR--BR------------------
WDir0000130120140160160160140160140
WSpd0 0 0 0 3 5 8 13 14 16 16 16 12
WGst-- -- -- -- -- -- -- -- 21 23 22 23 --
Raw hourly METARs
KASD 191000Z AUTO 00000KT 4SM BR OVC008 17/16 A3012 RMK AO2 T01670161
KASD 191053Z AUTO 00000KT 4SM BR BKN007 OVC060 16/16 A3013 RMK AO2 SLP202 T01560156
KASD 191153Z AUTO 00000KT 10SM BKN008 OVC042 16/14 A3014 RMK AO2 SLP205 T01560144 10206 20150 53004
KASD 191303Z AUTO 00000KT 1 1/2SM BR OVC006 16/14 A3015 RMK AO2 T01560144
KASD 191353Z AUTO 13003KT 10SM OVC006 19/18 A3016 RMK AO2 SLP212 T01940183
KASD 191453Z AUTO 12005KT 10SM BKN007 23/18 A3018 RMK AO2 SLP218 T02280183 53013
KASD 191553Z AUTO 14008KT 10SM FEW060 25/17 A3018 RMK AO2 SLP221 T02500172
KASD 191653Z AUTO 16013KT 10SM BKN065 27/17 A3018 RMK AO2 SLP220 T02670172
KASD 191753Z AUTO 16014G21KT 10SM FEW047 BKN065 27/16 A3016 RMK AO2 SLP214 T02720161 10272 20150 58004
KASD 191853Z AUTO 16016G23KT 10SM SCT035 OVC070 27/17 A3013 RMK AO2 SLP203 T02670172
KASD 191953Z AUTO 14016G22KT 10SM SCT038 BKN075 27/17 A3012 RMK AO2 SLP198 T02720172
KASD 192053Z AUTO 16016G23KT 10SM FEW029 SCT046 SCT065 26/19 A3011 RMK AO2 SLP197 T02610189 56017
KASD 192203Z AUTO 14012KT 10SM SCT025 26/19 A3012 RMK AO2 T02560194